createdAt,value
2022-12-02T00:02:30.472Z,14.09
2022-12-02T00:05:04.163Z,13.47
2022-12-02T00:07:32.926Z,13.26
2022-12-02T00:10:00.383Z,12.54
2022-12-02T00:12:31.639Z,13.19
2022-12-02T00:15:02.620Z,13.53
2022-12-02T00:17:30.122Z,13.65
2022-12-02T00:19:58.979Z,13.76
2022-12-02T00:22:26.140Z,13.41
2022-12-02T00:24:53.876Z,13.38
2022-12-02T00:27:21.061Z,13.35
2022-12-02T00:29:48.155Z,13.42
2022-12-02T00:32:15.199Z,13.48
2022-12-02T00:34:42.321Z,14.05
2022-12-02T00:37:10.841Z,14.16
2022-12-02T00:39:38.000Z,13.69
2022-12-02T00:42:05.060Z,13.14
2022-12-02T00:44:32.102Z,13.85
2022-12-02T00:46:59.279Z,13.50
2022-12-02T00:49:26.380Z,13.76
2022-12-02T00:51:53.581Z,14.96
2022-12-02T00:54:22.081Z,14.93
2022-12-02T00:56:49.200Z,14.96
2022-12-02T00:59:16.320Z,14.36
2022-12-02T01:01:43.662Z,14.81
2022-12-02T01:04:11.008Z,14.73
2022-12-02T01:06:38.091Z,14.48
2022-12-02T01:09:05.273Z,14.79
2022-12-02T01:11:33.851Z,14.70
2022-12-02T01:14:01.193Z,15.01
2022-12-02T01:16:28.399Z,15.17
2022-12-02T01:18:55.491Z,15.62
2022-12-02T01:21:22.712Z,16.11
2022-12-02T01:23:50.157Z,15.67
2022-12-02T01:26:17.456Z,15.61
2022-12-02T01:28:45.994Z,16.65
2022-12-02T01:31:13.815Z,16.98
2022-12-02T01:33:41.051Z,16.75
2022-12-02T01:36:09.174Z,16.75
2022-12-02T01:38:36.512Z,17.16
2022-12-02T01:41:04.872Z,17.64
2022-12-02T01:43:32.995Z,17.02
2022-12-02T01:46:02.391Z,16.93
2022-12-02T01:48:30.331Z,17.55
2022-12-02T01:50:58.296Z,17.04
2022-12-02T01:53:25.992Z,17.12
2022-12-02T01:55:53.136Z,17.52
2022-12-02T01:58:24.947Z,17.69
2022-12-02T02:00:53.564Z,17.59
2022-12-02T02:03:22.810Z,17.49
2022-12-02T02:05:51.355Z,17.95
2022-12-02T02:08:18.916Z,18.49
2022-12-02T02:10:48.437Z,18.65
2022-12-02T02:13:17.776Z,18.05
2022-12-02T02:15:45.935Z,17.82
2022-12-02T02:18:15.455Z,17.39
2022-12-02T02:20:44.457Z,17.09
2022-12-02T02:23:25.414Z,10.35
2022-12-02T02:25:56.576Z,11.13
2022-12-02T02:28:25.656Z,11.76
2022-12-02T02:30:55.436Z,15.27
2022-12-02T02:33:26.194Z,16.27
2022-12-02T02:35:54.373Z,16.94
2022-12-02T02:38:26.237Z,16.57
2022-12-02T02:40:55.518Z,16.73
2022-12-02T02:43:26.178Z,15.54
2022-12-02T02:45:54.953Z,13.24
2022-12-02T02:48:24.235Z,12.85
2022-12-02T02:50:52.434Z,13.35
2022-12-02T02:53:24.453Z,12.17
2022-12-02T02:55:52.397Z,11.71
2022-12-02T02:58:22.796Z,12.37
2022-12-02T03:00:55.726Z,11.94
2022-12-02T03:03:26.936Z,11.78
2022-12-02T03:05:56.274Z,13.02
2022-12-02T03:08:28.042Z,13.36
2022-12-02T03:10:59.083Z,12.44
2022-12-02T03:13:28.055Z,12.29
2022-12-02T03:15:55.556Z,12.39
2022-12-02T03:18:22.875Z,13.11
2022-12-02T03:20:50.177Z,12.38
2022-12-02T03:23:17.620Z,13.10
2022-12-02T03:25:46.176Z,12.63
2022-12-02T03:28:13.803Z,12.69
2022-12-02T03:30:41.256Z,13.00
2022-12-02T03:33:08.955Z,12.90
2022-12-02T03:35:36.096Z,13.38
2022-12-02T03:38:03.246Z,13.03
2022-12-02T03:40:31.245Z,12.78
2022-12-02T03:43:00.044Z,13.42
2022-12-02T03:45:27.280Z,12.68
2022-12-02T03:47:55.599Z,12.63
2022-12-02T03:50:23.178Z,12.77
2022-12-02T03:52:50.897Z,13.49
2022-12-02T03:55:18.365Z,13.29
2022-12-02T03:57:45.553Z,13.33
2022-12-02T04:00:16.434Z,13.19
2022-12-02T04:02:44.132Z,13.05
2022-12-02T04:05:12.030Z,13.27
2022-12-02T04:07:39.228Z,13.40
2022-12-02T04:10:08.091Z,13.37
2022-12-02T04:12:35.173Z,13.11
2022-12-02T04:15:02.294Z,13.42
2022-12-02T04:17:30.754Z,13.12
2022-12-02T04:19:57.843Z,13.26
2022-12-02T04:22:24.904Z,13.69
2022-12-02T04:24:52.181Z,12.93
2022-12-02T04:27:19.550Z,13.02
2022-12-02T04:29:46.640Z,13.61
2022-12-02T04:32:13.704Z,13.10
2022-12-02T04:34:42.296Z,13.30
2022-12-02T04:37:09.512Z,13.60
2022-12-02T04:39:36.696Z,12.89
2022-12-02T04:42:04.320Z,13.77
2022-12-02T04:44:31.518Z,13.73
2022-12-02T04:46:58.699Z,13.19
2022-12-02T04:49:25.835Z,13.68
2022-12-02T04:51:54.325Z,13.15
2022-12-02T04:54:21.326Z,13.35
2022-12-02T04:56:48.483Z,14.32
2022-12-02T04:59:15.605Z,14.20
2022-12-02T05:01:42.725Z,14.31
2022-12-02T05:04:09.861Z,13.96
2022-12-02T05:06:37.104Z,12.81
2022-12-02T05:09:05.705Z,13.43
2022-12-02T05:11:36.352Z,13.23
2022-12-02T05:14:04.028Z,13.22
2022-12-02T05:16:31.150Z,13.44
2022-12-02T05:18:58.478Z,13.20
2022-12-02T05:21:25.662Z,14.29
2022-12-02T05:23:52.795Z,13.90
2022-12-02T05:26:21.398Z,14.49
2022-12-02T05:28:48.516Z,14.47
2022-12-02T05:31:15.616Z,13.40
2022-12-02T05:33:42.835Z,12.82
2022-12-02T05:36:10.052Z,13.31
2022-12-02T05:38:37.069Z,13.11
2022-12-02T05:41:04.289Z,12.72
2022-12-02T05:43:38.531Z,13.18
2022-12-02T05:46:13.754Z,12.79
2022-12-02T05:48:41.516Z,13.10
2022-12-02T05:51:12.409Z,13.65
2022-12-02T05:53:41.164Z,13.44
2022-12-02T05:56:13.889Z,13.40
2022-12-02T05:58:42.608Z,13.73
2022-12-02T06:01:20.527Z,13.21
2022-12-02T06:03:49.782Z,14.10
2022-12-02T06:06:19.123Z,13.00
2022-12-02T06:08:46.223Z,12.89
2022-12-02T06:11:27.164Z,12.75
2022-12-02T06:13:58.483Z,12.68
2022-12-02T06:16:29.588Z,12.95
2022-12-02T06:18:59.528Z,13.23
2022-12-02T06:21:28.056Z,13.32
2022-12-02T06:23:59.030Z,13.36
2022-12-02T06:26:26.193Z,13.14
2022-12-02T06:28:59.407Z,13.36
2022-12-02T06:31:34.200Z,12.89
2022-12-02T06:34:14.051Z,12.85
2022-12-02T06:36:41.068Z,12.99
2022-12-02T06:39:21.667Z,13.56
2022-12-02T06:41:50.257Z,13.26
2022-12-02T06:44:21.953Z,13.51
2022-12-02T06:46:49.113Z,13.20
2022-12-02T06:49:20.711Z,12.46
2022-12-02T06:51:52.492Z,11.44
2022-12-02T06:54:23.277Z,12.50
2022-12-02T06:56:51.432Z,12.05
2022-12-02T06:59:23.508Z,11.76
2022-12-02T07:01:55.927Z,12.19
2022-12-02T07:04:43.677Z,13.54
2022-12-02T07:07:17.921Z,13.15
2022-12-02T07:09:47.639Z,13.47
2022-12-02T07:12:19.479Z,12.58
2022-12-02T07:14:51.930Z,12.75
2022-12-02T07:17:24.138Z,12.87
2022-12-02T07:20:00.083Z,12.81
2022-12-02T07:22:36.018Z,13.43
2022-12-02T07:25:32.494Z,12.88
2022-12-02T07:28:00.765Z,13.32
2022-12-02T07:30:32.395Z,12.81
2022-12-02T07:33:00.235Z,13.43
2022-12-02T07:35:28.737Z,13.38
2022-12-02T07:37:56.174Z,13.93
2022-12-02T07:40:23.875Z,13.89
2022-12-02T07:42:51.377Z,13.50
2022-12-02T07:45:20.465Z,13.02
2022-12-02T07:47:49.053Z,12.79
2022-12-02T07:50:17.077Z,13.05
2022-12-02T07:52:44.218Z,13.15
2022-12-02T07:55:11.773Z,13.92
2022-12-02T07:57:39.016Z,13.15
2022-12-02T08:00:08.337Z,13.86
2022-12-02T08:02:35.541Z,13.73
2022-12-02T08:05:05.027Z,13.68
2022-12-02T08:07:32.228Z,15.21
2022-12-02T08:09:59.502Z,14.20
2022-12-02T08:12:26.561Z,14.05
2022-12-02T08:14:53.915Z,13.90
2022-12-02T08:17:21.220Z,14.26
2022-12-02T08:19:48.299Z,14.48
2022-12-02T08:22:16.899Z,14.15
2022-12-02T08:24:44.200Z,13.92
2022-12-02T08:27:11.272Z,14.51
2022-12-02T08:29:38.349Z,13.79
2022-12-02T08:32:05.982Z,13.40
2022-12-02T08:34:33.134Z,14.10
2022-12-02T08:37:00.390Z,14.46
2022-12-02T08:39:29.030Z,14.21
2022-12-02T08:41:56.114Z,14.49
2022-12-02T08:44:23.249Z,13.99
2022-12-02T08:46:54.320Z,14.13
2022-12-02T08:49:22.048Z,13.58
2022-12-02T08:51:49.310Z,12.84
2022-12-02T08:54:17.135Z,13.18
2022-12-02T08:56:45.800Z,13.84
2022-12-02T08:59:13.072Z,13.21
2022-12-02T09:01:40.143Z,12.76
2022-12-02T09:04:07.516Z,12.67
2022-12-02T09:06:36.539Z,12.04
2022-12-02T09:09:05.446Z,12.66
2022-12-02T09:11:32.872Z,13.22
2022-12-02T09:14:01.473Z,12.88
2022-12-02T09:16:28.738Z,13.37
2022-12-02T09:18:55.972Z,13.75
2022-12-02T09:21:23.245Z,13.12
2022-12-02T09:23:50.810Z,12.83
2022-12-02T09:26:18.413Z,12.88
2022-12-02T09:28:45.908Z,13.01
2022-12-02T09:31:14.544Z,13.35
2022-12-02T09:33:41.742Z,13.24
2022-12-02T09:36:10.101Z,13.63
2022-12-02T09:38:37.784Z,13.33
2022-12-02T09:41:05.644Z,13.37
2022-12-02T09:43:34.444Z,13.19
2022-12-02T09:46:02.327Z,13.29
2022-12-02T09:48:32.181Z,13.71
2022-12-02T09:51:00.485Z,13.90
2022-12-02T09:53:32.104Z,14.26
2022-12-02T09:55:59.187Z,13.59
2022-12-02T09:58:27.002Z,13.64
2022-12-02T10:00:54.882Z,14.36
2022-12-02T10:03:27.174Z,14.05
2022-12-02T10:05:56.264Z,14.19
2022-12-02T10:08:27.522Z,15.12
2022-12-02T10:10:56.543Z,14.46
2022-12-02T10:13:24.328Z,14.08
2022-12-02T10:15:52.488Z,14.55
2022-12-02T10:18:24.834Z,15.20
2022-12-02T10:20:52.154Z,14.93
2022-12-02T10:23:22.793Z,14.56
2022-12-02T10:25:52.402Z,14.76
2022-12-02T10:28:24.488Z,15.07
2022-12-02T10:30:55.144Z,14.86
2022-12-02T10:33:28.871Z,14.22
2022-12-02T10:35:56.549Z,14.21
2022-12-02T10:38:38.539Z,20.14
2022-12-02T10:41:26.393Z,21.08
2022-12-02T10:44:12.841Z,21.30
2022-12-02T10:46:39.958Z,21.02
2022-12-02T10:49:27.180Z,20.97
2022-12-02T10:51:55.033Z,21.14
2022-12-02T10:54:26.553Z,21.24
2022-12-02T10:56:53.663Z,21.99
2022-12-02T10:59:23.293Z,21.58
2022-12-02T11:01:50.515Z,22.03
2022-12-02T11:04:17.732Z,22.17
2022-12-02T11:06:45.715Z,21.49
2022-12-02T11:09:39.608Z,20.78
2022-12-02T11:12:36.113Z,21.58
2022-12-02T11:15:39.212Z,21.21
2022-12-02T11:18:08.780Z,19.86
2022-12-02T11:20:46.893Z,20.67
2022-12-02T11:23:20.536Z,19.75
2022-12-02T11:25:56.821Z,20.32
2022-12-02T11:29:00.492Z,20.45
2022-12-02T11:31:28.068Z,20.32
2022-12-02T11:34:47.782Z,19.99
2022-12-02T11:37:40.815Z,20.52
2022-12-02T11:40:41.253Z,20.29
2022-12-02T11:43:45.272Z,20.99
2022-12-02T11:46:16.283Z,19.23
2022-12-02T11:48:45.755Z,19.49
2022-12-02T11:51:30.744Z,20.27
2022-12-02T11:53:59.116Z,20.59
2022-12-02T11:56:32.792Z,20.45
2022-12-02T11:59:00.416Z,20.99
2022-12-02T12:01:28.915Z,21.17
2022-12-02T12:03:55.992Z,20.13
2022-12-02T12:06:25.010Z,19.54
2022-12-02T12:08:54.633Z,21.13
2022-12-02T12:11:24.975Z,23.85
2022-12-02T12:14:06.677Z,20.44
2022-12-02T12:16:37.559Z,20.65
2022-12-02T12:19:27.788Z,21.38
2022-12-02T12:21:56.230Z,20.14
2022-12-02T12:24:29.428Z,21.24
2022-12-02T12:26:59.187Z,20.62
2022-12-02T12:29:30.630Z,20.11
2022-12-02T12:31:59.368Z,20.72
2022-12-02T12:34:29.149Z,20.11
2022-12-02T12:36:56.488Z,20.73
2022-12-02T12:39:23.670Z,20.73
2022-12-02T12:41:59.670Z,20.13
2022-12-02T12:44:30.759Z,20.87
2022-12-02T12:47:01.029Z,20.02
2022-12-02T12:49:28.686Z,20.06
2022-12-02T12:51:55.867Z,21.24
2022-12-02T12:54:23.107Z,21.59
2022-12-02T12:56:50.292Z,20.75
2022-12-02T12:59:17.376Z,19.97
2022-12-02T13:01:44.555Z,20.07
2022-12-02T13:04:13.188Z,20.60
2022-12-02T13:06:42.736Z,20.84
2022-12-02T13:09:10.868Z,14.82
2022-12-02T13:11:37.968Z,17.97
2022-12-02T13:14:05.549Z,18.22
2022-12-02T13:16:33.175Z,20.26
2022-12-02T13:19:00.609Z,20.57
2022-12-02T13:21:29.249Z,21.08
2022-12-02T13:23:56.309Z,20.41
2022-12-02T13:26:23.507Z,20.28
2022-12-02T13:28:50.713Z,20.16
2022-12-02T13:31:17.887Z,19.84
2022-12-02T13:33:45.148Z,20.10
2022-12-02T13:36:12.248Z,19.28
2022-12-02T13:38:40.816Z,19.17
2022-12-02T13:41:08.024Z,19.30
2022-12-02T13:43:35.088Z,19.45
2022-12-02T13:46:02.216Z,19.02
2022-12-02T13:48:29.407Z,18.96
2022-12-02T13:50:56.487Z,19.81
2022-12-02T13:53:23.489Z,19.67
2022-12-02T13:55:52.071Z,19.09
2022-12-02T13:58:19.208Z,19.92
2022-12-02T14:00:46.509Z,19.02
2022-12-02T14:03:13.772Z,19.74
2022-12-02T14:05:40.987Z,20.59
2022-12-02T14:08:08.168Z,20.57
2022-12-02T14:10:35.368Z,19.55
2022-12-02T14:13:03.929Z,19.64
2022-12-02T14:15:31.369Z,20.09
2022-12-02T14:17:58.668Z,19.66
2022-12-02T14:20:25.760Z,19.03
2022-12-02T14:22:52.868Z,19.75
2022-12-02T14:25:20.209Z,18.93
2022-12-02T14:27:47.291Z,19.89
2022-12-02T14:30:16.579Z,20.93
2022-12-02T14:32:43.748Z,21.28
2022-12-02T14:35:10.968Z,19.55
2022-12-02T14:37:38.127Z,19.50
2022-12-02T14:40:06.946Z,19.14
2022-12-02T14:42:34.452Z,18.42
2022-12-02T14:45:01.586Z,18.84
2022-12-02T14:47:30.207Z,19.46
2022-12-02T14:49:57.329Z,18.82
2022-12-02T14:52:24.389Z,19.48
2022-12-02T14:54:51.730Z,19.02
2022-12-02T14:57:19.050Z,19.64
2022-12-02T14:59:46.128Z,19.92
2022-12-02T15:02:13.398Z,19.68
2022-12-02T15:04:42.161Z,19.86
2022-12-02T15:07:09.412Z,20.09
2022-12-02T15:09:37.147Z,20.21
2022-12-02T15:12:04.949Z,20.81
2022-12-02T15:14:31.987Z,22.07
2022-12-02T15:16:59.177Z,24.14
2022-12-02T15:19:26.407Z,22.29
2022-12-02T15:21:55.007Z,20.89
2022-12-02T15:24:22.107Z,20.38
2022-12-02T15:26:55.014Z,20.75
2022-12-02T15:29:22.837Z,20.10
2022-12-02T15:31:50.090Z,18.81
2022-12-02T15:34:17.688Z,18.86
2022-12-02T15:36:44.870Z,19.16
2022-12-02T15:39:13.970Z,19.47
2022-12-02T15:41:41.129Z,19.42
2022-12-02T15:44:08.287Z,19.84
2022-12-02T15:46:35.418Z,19.63
2022-12-02T15:49:04.194Z,20.50
2022-12-02T15:51:31.395Z,18.90
2022-12-02T15:53:58.527Z,19.09
2022-12-02T15:56:27.387Z,18.92
2022-12-02T15:58:54.568Z,18.79
2022-12-02T16:01:21.742Z,18.27
2022-12-02T16:03:49.300Z,18.56
2022-12-02T16:06:16.529Z,18.65
2022-12-02T16:08:44.160Z,18.64
2022-12-02T16:11:11.354Z,18.68
2022-12-02T16:13:39.908Z,18.37
2022-12-02T16:16:07.896Z,18.23
2022-12-02T16:18:35.048Z,19.08
2022-12-02T16:21:02.307Z,19.06
2022-12-02T16:23:29.867Z,19.21
2022-12-02T16:25:56.927Z,18.67
2022-12-02T16:28:24.007Z,19.14
2022-12-02T16:30:52.870Z,19.55
2022-12-02T16:33:19.943Z,19.26
2022-12-02T16:35:47.129Z,19.20
2022-12-02T16:38:14.397Z,19.37
2022-12-02T16:40:41.489Z,19.08
2022-12-02T16:43:08.618Z,19.42
2022-12-02T16:45:35.968Z,19.01
2022-12-02T16:48:05.143Z,19.09
2022-12-02T16:50:32.299Z,19.12
2022-12-02T16:52:59.620Z,19.70
2022-12-02T16:55:26.818Z,19.18
2022-12-02T16:57:53.982Z,19.90
2022-12-02T17:00:22.000Z,19.26
2022-12-02T17:02:49.196Z,19.71
2022-12-02T17:05:18.018Z,19.35
2022-12-02T17:07:45.143Z,19.63
2022-12-02T17:10:13.318Z,19.11
2022-12-02T17:12:40.458Z,18.32
2022-12-02T17:15:09.700Z,18.56
2022-12-02T17:17:46.332Z,18.79
2022-12-02T17:20:15.199Z,18.57
2022-12-02T17:22:43.876Z,18.97
2022-12-02T17:25:11.779Z,18.01
2022-12-02T17:27:39.538Z,18.61
2022-12-02T17:30:08.242Z,18.31
2022-12-02T17:32:35.418Z,19.27
2022-12-02T17:35:02.547Z,18.00
2022-12-02T17:37:29.720Z,18.82
2022-12-02T17:39:58.458Z,18.71
2022-12-02T17:42:25.620Z,18.49
2022-12-02T17:44:52.992Z,18.63
2022-12-02T17:47:20.313Z,18.16
2022-12-02T17:49:47.438Z,18.10
2022-12-02T17:52:21.797Z,18.67
2022-12-02T17:54:49.728Z,18.53
2022-12-02T17:57:18.714Z,18.35
2022-12-02T17:59:45.775Z,18.56
2022-12-02T18:02:13.941Z,18.68
2022-12-02T18:04:41.279Z,17.89
2022-12-02T18:07:10.135Z,17.68
2022-12-02T18:09:38.614Z,17.69
2022-12-02T18:12:07.512Z,18.58
2022-12-02T18:14:36.233Z,18.05
2022-12-02T18:17:03.538Z,18.14
2022-12-02T18:19:30.813Z,19.21
2022-12-02T18:21:57.944Z,18.71
2022-12-02T18:24:25.178Z,18.26
2022-12-02T18:26:52.372Z,18.99
2022-12-02T18:29:19.674Z,18.73
2022-12-02T18:31:48.234Z,19.08
2022-12-02T18:34:15.354Z,19.98
2022-12-02T18:36:42.434Z,18.78
2022-12-02T18:39:09.514Z,19.23
2022-12-02T18:41:36.645Z,18.73
2022-12-02T18:44:03.854Z,19.57
2022-12-02T18:46:31.163Z,19.32
2022-12-02T18:49:00.075Z,19.50
2022-12-02T18:51:27.093Z,19.35
2022-12-02T18:53:54.192Z,19.86
2022-12-02T18:56:24.455Z,20.05
2022-12-02T18:58:51.893Z,20.46
2022-12-02T19:01:19.081Z,19.75
2022-12-02T19:03:46.998Z,19.42
2022-12-02T19:06:15.613Z,19.74
2022-12-02T19:08:43.273Z,19.53
2022-12-02T19:11:10.605Z,19.46
2022-12-02T19:13:37.814Z,19.18
2022-12-02T19:16:05.514Z,19.27
2022-12-02T19:18:32.670Z,20.00
2022-12-02T19:21:00.253Z,19.97
2022-12-02T19:23:29.068Z,20.85
2022-12-02T19:25:56.333Z,20.49
2022-12-02T19:28:23.837Z,20.18
2022-12-02T19:30:51.073Z,20.00
2022-12-02T19:33:18.234Z,19.73
2022-12-02T19:35:45.273Z,20.11
2022-12-02T19:38:15.379Z,19.35
2022-12-02T19:40:45.798Z,19.82
2022-12-02T19:43:14.295Z,19.54
2022-12-02T19:45:42.512Z,19.65
2022-12-02T19:48:10.100Z,19.61
2022-12-02T19:50:37.792Z,19.81
2022-12-02T19:53:04.975Z,20.31
2022-12-02T19:55:32.124Z,19.83
2022-12-02T19:58:00.796Z,11.81
2022-12-02T20:00:27.994Z,12.09
2022-12-02T20:02:55.085Z,13.69
2022-12-02T20:05:22.314Z,14.53
2022-12-02T20:07:50.492Z,16.87
2022-12-02T20:10:18.555Z,18.04
2022-12-02T20:12:46.138Z,17.71
2022-12-02T20:15:16.642Z,18.62
2022-12-02T20:17:43.777Z,18.52
2022-12-02T20:20:14.293Z,18.90
2022-12-02T20:22:41.497Z,19.61
2022-12-02T20:25:10.394Z,18.62
2022-12-02T20:27:38.294Z,19.35
2022-12-02T20:30:07.053Z,19.46
2022-12-02T20:32:36.233Z,19.21
2022-12-02T20:35:04.053Z,20.14
2022-12-02T20:37:31.155Z,19.98
2022-12-02T20:39:58.264Z,19.78
2022-12-02T20:42:25.396Z,17.58
2022-12-02T20:44:53.642Z,20.46
2022-12-02T20:47:20.935Z,20.54
2022-12-02T20:49:52.056Z,20.36
2022-12-02T20:52:19.716Z,20.51
2022-12-02T20:54:47.238Z,19.99
2022-12-02T20:57:14.597Z,19.66
2022-12-02T20:59:42.614Z,19.51
2022-12-02T21:02:11.424Z,20.52
2022-12-02T21:04:39.825Z,19.79
2022-12-02T21:07:09.888Z,20.60
2022-12-02T21:09:37.775Z,20.43
2022-12-02T21:12:05.376Z,19.38
2022-12-02T21:14:33.328Z,20.47
2022-12-02T21:17:00.517Z,19.77
2022-12-02T21:19:27.777Z,19.56
2022-12-02T21:21:54.913Z,19.37
2022-12-02T21:24:23.597Z,19.41
2022-12-02T21:26:50.734Z,19.83
2022-12-02T21:29:17.875Z,20.08
2022-12-02T21:31:45.419Z,20.16
2022-12-02T21:34:12.673Z,18.30
2022-12-02T21:36:39.853Z,18.42
2022-12-02T21:39:07.674Z,17.37
2022-12-02T21:41:36.237Z,17.02
2022-12-02T21:44:03.473Z,15.51
2022-12-02T21:46:30.744Z,15.47
2022-12-02T21:48:57.827Z,14.89
2022-12-02T21:51:24.954Z,14.89
2022-12-02T21:53:52.035Z,15.16
2022-12-02T21:56:19.296Z,14.24
2022-12-02T21:58:47.855Z,14.26
2022-12-02T22:01:15.034Z,14.48
2022-12-02T22:03:42.895Z,14.60
2022-12-02T22:06:12.194Z,14.43
2022-12-02T22:08:39.728Z,14.16
2022-12-02T22:11:07.078Z,14.32
2022-12-02T22:13:34.554Z,14.50
2022-12-02T22:16:03.432Z,14.69
2022-12-02T22:18:30.556Z,14.41
2022-12-02T22:20:57.773Z,14.08
2022-12-02T22:23:24.894Z,14.30
2022-12-02T22:25:52.072Z,14.49
2022-12-02T22:28:19.213Z,14.42
2022-12-02T22:30:46.255Z,14.50
2022-12-02T22:33:14.895Z,14.27
2022-12-02T22:35:42.046Z,15.45
2022-12-02T22:38:09.105Z,14.89
2022-12-02T22:40:36.253Z,14.79
2022-12-02T22:43:03.393Z,14.35
2022-12-02T22:45:30.571Z,14.99
2022-12-02T22:47:57.756Z,15.00
2022-12-02T22:50:26.475Z,15.23
2022-12-02T22:52:53.514Z,14.28
2022-12-02T22:55:20.637Z,14.46
2022-12-02T22:57:47.894Z,14.46
2022-12-02T23:00:17.138Z,14.81
2022-12-02T23:02:44.911Z,14.44
2022-12-02T23:05:12.055Z,14.15
2022-12-02T23:07:40.705Z,14.61
2022-12-02T23:10:09.153Z,14.47
2022-12-02T23:12:36.175Z,14.65
2022-12-02T23:15:34.374Z,14.29
2022-12-02T23:17:50.640Z,15.01
2022-12-02T23:20:17.835Z,14.17
2022-12-02T23:22:46.292Z,15.00
2022-12-02T23:25:13.434Z,15.30
2022-12-02T23:27:40.487Z,15.32
2022-12-02T23:30:08.674Z,15.53
2022-12-02T23:32:35.873Z,16.19
2022-12-02T23:35:02.932Z,18.05
2022-12-02T23:37:29.977Z,18.28
2022-12-02T23:39:58.526Z,19.20
2022-12-02T23:42:25.552Z,16.70
2022-12-02T23:44:52.804Z,17.50
2022-12-02T23:47:20.146Z,21.26
2022-12-02T23:49:47.254Z,18.33
2022-12-02T23:52:14.252Z,17.16
2022-12-02T23:54:41.335Z,17.16
2022-12-02T23:57:09.853Z,17.03
2022-12-02T23:59:36.915Z,17.28
